Time;durP1;ratioP1;P1;durP2;ratioP2;P2;SDS_P1;SDS_P2;PMS_P1;PMS_P2;Temp;Humidity;BMP_temperature;BMP_pressure;BME280_temperature;BME280_humidity;BME280_pressure;Samples;Min_cycle;Max_cycle;Signal;HPM_P1;HPM_P2
2021/10/25 00:00:26;;;;;;;3.58;3.05;;;3.10;99.90;;;;;;452655;262;27491;-75
2021/10/25 00:02:26;;;;;;;3.10;2.83;;;3.00;99.90;;;;;;452575;262;27983;-77
2021/10/25 00:04:27;;;;;;;3.17;2.72;;;3.00;99.90;;;;;;452535;262;28173;-75
2021/10/25 00:06:29;;;;;;;2.95;2.75;;;3.00;99.90;;;;;;452669;262;28056;-75
2021/10/25 00:08:30;;;;;;;3.00;2.80;;;3.00;99.90;;;;;;452637;262;29190;-76
2021/10/25 00:10:31;;;;;;;3.10;2.85;;;3.00;99.90;;;;;;452308;258;27535;-76
2021/10/25 00:12:32;;;;;;;2.97;2.78;;;2.90;99.90;;;;;;452436;262;27607;-75
2021/10/25 00:14:34;;;;;;;3.40;3.10;;;2.90;99.90;;;;;;452641;262;27642;-76
2021/10/25 00:16:35;;;;;;;4.18;3.78;;;2.90;99.90;;;;;;452355;262;27529;-76
2021/10/25 00:18:36;;;;;;;3.50;3.20;;;2.90;99.90;;;;;;452662;262;27519;-75
2021/10/25 00:20:37;;;;;;;2.70;2.50;;;2.90;99.90;;;;;;452626;262;27550;-78
2021/10/25 00:22:39;;;;;;;2.80;2.60;;;2.90;99.90;;;;;;452633;262;27638;-76
2021/10/25 00:24:40;;;;;;;2.87;2.67;;;2.90;99.90;;;;;;452670;262;27642;-78
2021/10/25 00:26:41;;;;;;;3.30;3.10;;;2.90;99.90;;;;;;452648;262;27582;-75
2021/10/25 00:28:42;;;;;;;2.95;2.65;;;2.90;99.90;;;;;;452641;262;27662;-76
2021/10/25 00:30:44;;;;;;;3.30;3.00;;;2.90;99.90;;;;;;452612;262;27505;-77
2021/10/25 00:32:45;;;;;;;2.72;2.53;;;2.90;99.90;;;;;;452643;262;28031;-76
2021/10/25 00:34:46;;;;;;;3.62;2.80;;;2.90;99.90;;;;;;452621;262;28117;-78
2021/10/25 00:36:47;;;;;;;3.35;3.05;;;2.80;99.90;;;;;;452639;263;28046;-77
2021/10/25 00:38:49;;;;;;;3.00;2.80;;;2.80;99.90;;;;;;452661;262;27642;-75
2021/10/25 00:40:50;;;;;;;3.78;3.30;;;2.80;99.90;;;;;;452648;262;27589;-75
2021/10/25 00:42:51;;;;;;;3.33;3.03;;;2.80;99.90;;;;;;452646;262;27593;-77
2021/10/25 00:44:52;;;;;;;2.60;2.40;;;2.80;99.90;;;;;;452653;262;27602;-75
2021/10/25 00:46:54;;;;;;;3.00;2.80;;;2.90;99.90;;;;;;452648;263;27498;-76
2021/10/25 00:48:55;;;;;;;2.95;2.67;;;2.90;99.90;;;;;;452655;262;27607;-75
2021/10/25 00:50:56;;;;;;;3.42;2.53;;;2.90;99.90;;;;;;452647;262;27502;-75
2021/10/25 00:52:57;;;;;;;3.58;2.90;;;2.90;99.90;;;;;;452652;262;27503;-76
2021/10/25 00:54:59;;;;;;;2.97;2.78;;;2.90;99.90;;;;;;452641;262;27562;-77
2021/10/25 00:57:00;;;;;;;3.40;3.10;;;3.00;99.90;;;;;;452647;262;27550;-75
2021/10/25 00:59:01;;;;;;;2.90;2.70;;;3.00;99.90;;;;;;452629;262;27987;-76
2021/10/25 01:01:03;;;;;;;3.03;2.72;;;2.90;99.90;;;;;;452661;262;28026;-77
2021/10/25 01:03:04;;;;;;;3.28;3.03;;;2.90;99.90;;;;;;452648;262;27947;-76
2021/10/25 01:05:05;;;;;;;3.37;2.80;;;2.90;99.90;;;;;;452672;262;28116;-76
2021/10/25 01:07:06;;;;;;;3.00;2.80;;;2.90;99.90;;;;;;452651;262;27486;-75
2021/10/25 01:09:07;;;;;;;3.78;3.00;;;2.90;99.90;;;;;;452669;262;27611;-75
2021/10/25 01:11:09;;;;;;;2.97;2.60;;;2.90;99.90;;;;;;452672;262;27527;-77
2021/10/25 01:13:10;;;;;;;2.83;2.62;;;2.90;99.90;;;;;;452692;262;27474;-75
2021/10/25 01:15:11;;;;;;;3.53;2.90;;;2.80;99.90;;;;;;452668;263;27629;-76
2021/10/25 01:17:12;;;;;;;2.90;2.70;;;2.90;99.90;;;;;;452633;262;27558;-76
2021/10/25 01:19:14;;;;;;;3.03;2.83;;;2.80;99.90;;;;;;452646;262;27543;-77
2021/10/25 01:21:15;;;;;;;2.40;2.30;;;2.90;99.90;;;;;;452639;262;27658;-77
2021/10/25 01:23:16;;;;;;;2.37;2.17;;;2.90;99.90;;;;;;452636;262;27494;-75
2021/10/25 01:25:17;;;;;;;2.60;2.40;;;2.90;99.90;;;;;;452604;262;27570;-76
2021/10/25 01:27:19;;;;;;;2.22;2.12;;;2.90;99.90;;;;;;452613;262;27579;-75
2021/10/25 01:29:20;;;;;;;3.15;2.50;;;2.80;99.90;;;;;;452677;263;27936;-75
2021/10/25 01:31:21;;;;;;;2.75;2.55;;;2.80;99.90;;;;;;452634;262;28026;-76
2021/10/25 01:33:23;;;;;;;4.60;2.85;;;2.80;99.90;;;;;;452633;262;28165;-76
2021/10/25 01:35:24;;;;;;;2.65;2.45;;;2.70;99.90;;;;;;452601;262;28094;-76
2021/10/25 01:37:25;;;;;;;3.15;2.95;;;2.70;99.90;;;;;;452629;262;27607;-76
2021/10/25 01:39:26;;;;;;;3.30;3.00;;;2.80;99.90;;;;;;452639;262;27630;-77
2021/10/25 01:41:27;;;;;;;3.10;2.90;;;2.80;99.90;;;;;;452646;262;27587;-75
2021/10/25 01:43:29;;;;;;;2.72;2.53;;;2.80;99.90;;;;;;452601;262;27493;-75
2021/10/25 01:45:30;;;;;;;2.47;2.35;;;2.80;99.90;;;;;;452641;262;27554;-76
2021/10/25 01:47:31;;;;;;;3.30;2.95;;;2.90;99.90;;;;;;452624;262;28003;-76
2021/10/25 01:49:32;;;;;;;2.62;2.42;;;2.90;99.90;;;;;;452639;262;27999;-75
2021/10/25 01:51:35;;;;;;;2.90;2.70;;;2.90;99.90;;;;;;452633;262;27538;-76
2021/10/25 01:53:35;;;;;;;3.65;2.50;;;2.90;99.90;;;;;;452564;263;27546;-73
2021/10/25 01:55:36;;;;;;;3.53;2.87;;;2.90;99.90;;;;;;452625;262;27987;-76
2021/10/25 01:57:37;;;;;;;2.95;2.60;;;2.80;99.90;;;;;;452638;262;28104;-76
2021/10/25 01:59:40;;;;;;;2.40;2.30;;;2.80;99.90;;;;;;452641;258;28098;-75
2021/10/25 02:01:40;;;;;;;3.15;2.47;;;2.80;99.90;;;;;;452566;262;27994;-77
2021/10/25 02:03:41;;;;;;;3.00;2.80;;;2.80;99.90;;;;;;452614;263;27607;-75
2021/10/25 02:05:42;;;;;;;3.35;2.90;;;2.80;99.90;;;;;;452616;262;27550;-75
2021/10/25 02:07:44;;;;;;;3.30;3.10;;;2.80;99.90;;;;;;452608;262;27546;-78
2021/10/25 02:09:45;;;;;;;3.33;2.90;;;2.80;99.90;;;;;;452604;262;27518;-75
2021/10/25 02:11:47;;;;;;;3.00;2.72;;;2.80;99.90;;;;;;452619;262;27550;-77
2021/10/25 02:13:47;;;;;;;2.90;2.65;;;2.80;99.90;;;;;;452595;262;27479;-74
2021/10/25 02:15:49;;;;;;;3.10;2.58;;;2.80;99.90;;;;;;452633;262;27498;-76
2021/10/25 02:17:50;;;;;;;3.00;2.50;;;2.70;99.90;;;;;;452632;263;27527;-77
2021/10/25 02:19:51;;;;;;;3.00;2.70;;;2.80;99.90;;;;;;452629;262;27579;-77
2021/10/25 02:21:53;;;;;;;3.03;2.72;;;2.80;99.90;;;;;;452639;263;27534;-78
2021/10/25 02:23:54;;;;;;;3.20;3.00;;;2.80;99.90;;;;;;452616;263;28183;-76
2021/10/25 02:25:55;;;;;;;3.62;3.20;;;2.70;99.90;;;;;;452650;262;28089;-76
2021/10/25 02:27:56;;;;;;;3.10;2.90;;;2.70;99.90;;;;;;452609;258;28000;-76
2021/10/25 02:29:57;;;;;;;3.05;2.85;;;2.80;99.90;;;;;;452629;258;28066;-76
2021/10/25 02:31:59;;;;;;;3.20;2.80;;;2.80;99.90;;;;;;452623;262;27546;-76
2021/10/25 02:34:00;;;;;;;3.00;2.80;;;2.80;99.90;;;;;;452625;262;27622;-77
2021/10/25 02:36:03;;;;;;;3.25;2.87;;;2.80;99.90;;;;;;452556;262;27487;-75
2021/10/25 02:38:03;;;;;;;3.33;3.12;;;2.80;99.90;;;;;;452531;262;27531;-77
2021/10/25 02:40:04;;;;;;;2.72;2.53;;;2.80;99.90;;;;;;452586;263;27518;-75
2021/10/25 02:42:05;;;;;;;3.15;2.80;;;2.80;99.90;;;;;;452601;262;27527;-77
2021/10/25 02:44:06;;;;;;;6.55;3.25;;;2.80;99.90;;;;;;452633;262;27642;-77
2021/10/25 02:46:07;;;;;;;3.03;2.83;;;2.70;99.90;;;;;;452632;262;27570;-75
2021/10/25 02:48:10;;;;;;;2.55;2.35;;;2.70;99.90;;;;;;452620;262;27639;-76
2021/10/25 02:50:10;;;;;;;2.65;2.45;;;2.70;99.90;;;;;;452559;262;27479;-75
2021/10/25 02:52:11;;;;;;;3.50;2.70;;;2.70;99.90;;;;;;452626;262;27537;-76
2021/10/25 02:54:12;;;;;;;2.70;2.50;;;2.70;99.90;;;;;;452651;262;28019;-77
2021/10/25 02:56:14;;;;;;;2.70;2.50;;;2.70;99.90;;;;;;452621;263;28033;-75
2021/10/25 02:58:15;;;;;;;2.70;2.50;;;2.70;99.90;;;;;;452641;262;28117;-77
2021/10/25 03:00:16;;;;;;;2.60;2.40;;;2.70;99.90;;;;;;452598;258;28096;-76
2021/10/25 03:02:17;;;;;;;2.60;2.40;;;2.70;99.90;;;;;;452636;263;27491;-76
2021/10/25 03:04:19;;;;;;;2.58;2.37;;;2.70;99.90;;;;;;452626;262;27546;-77
2021/10/25 03:06:20;;;;;;;4.12;2.47;;;2.70;99.90;;;;;;452622;258;27545;-75
2021/10/25 03:08:22;;;;;;;2.92;2.58;;;2.70;99.90;;;;;;452642;262;27534;-76
2021/10/25 03:10:22;;;;;;;3.20;3.00;;;2.70;99.90;;;;;;452607;263;27636;-75
2021/10/25 03:12:24;;;;;;;2.53;2.33;;;2.70;99.90;;;;;;452648;263;27542;-76
2021/10/25 03:14:25;;;;;;;2.62;2.42;;;2.70;99.90;;;;;;452676;262;27522;-76
2021/10/25 03:16:26;;;;;;;2.45;2.25;;;2.70;99.90;;;;;;452579;262;27637;-76
2021/10/25 03:18:27;;;;;;;2.33;2.22;;;2.70;99.90;;;;;;452625;262;27614;-76
2021/10/25 03:20:29;;;;;;;2.83;2.62;;;2.60;99.90;;;;;;452624;258;27594;-76
2021/10/25 03:22:30;;;;;;;2.92;2.58;;;2.70;99.90;;;;;;452639;262;27964;-76
2021/10/25 03:24:31;;;;;;;2.78;2.58;;;2.70;99.90;;;;;;452599;262;28014;-76
2021/10/25 03:26:32;;;;;;;2.97;2.78;;;2.70;99.90;;;;;;452607;262;27949;-75
2021/10/25 03:28:34;;;;;;;2.90;2.70;;;2.70;99.90;;;;;;452586;262;29115;-76
2021/10/25 03:30:35;;;;;;;2.65;2.45;;;2.70;99.90;;;;;;452648;262;27615;-77
2021/10/25 03:32:36;;;;;;;2.90;2.70;;;2.70;99.90;;;;;;452643;263;27559;-76
2021/10/25 03:34:39;;;;;;;2.40;2.30;;;2.70;99.90;;;;;;452631;258;27607;-76
2021/10/25 03:36:41;;;;;;;2.90;2.70;;;2.70;99.90;;;;;;452539;262;27478;-76
2021/10/25 03:38:41;;;;;;;2.53;2.30;;;2.70;99.90;;;;;;452476;262;27578;-75
2021/10/25 03:40:44;;;;;;;2.80;2.60;;;2.70;99.90;;;;;;452580;263;27534;-78
2021/10/25 03:42:46;;;;;;;3.20;2.90;;;2.60;99.90;;;;;;452428;262;27591;-77
2021/10/25 03:44:49;;;;;;;3.03;2.75;;;2.60;99.90;;;;;;452475;262;27623;-76
2021/10/25 03:47:00;;;;;;;3.20;2.87;;;2.60;99.90;;;;;;452087;262;27580;-75
2021/10/25 03:49:08;;;;;;;3.40;3.10;;;2.50;99.90;;;;;;452332;263;27521;-75
2021/10/25 03:51:04;;;;;;;2.53;2.33;;;2.50;99.90;;;;;;452236;262;27483;-75
2021/10/25 03:53:08;;;;;;;4.43;2.92;;;2.50;99.90;;;;;;452656;262;27480;-75
2021/10/25 03:55:16;;;;;;;2.72;2.53;;;2.50;99.90;;;;;;452410;262;27535;-76
2021/10/25 03:57:32;;;;;;;2.83;2.62;;;2.50;99.90;;;;;;452372;263;27954;-75
2021/10/25 04:04:17;;;;;;;4.70;2.90;;;2.50;99.90;;;;;;452639;262;27647;-76
2021/10/25 04:27:02;;;;;;;2.55;2.37;;;2.40;99.90;;;;;;452702;263;28039;-75
2021/10/25 04:28:54;;;;;;;2.65;2.45;;;2.40;99.90;;;;;;452178;262;27998;-77
2021/10/25 04:30:57;;;;;;;4.12;2.50;;;2.40;99.90;;;;;;452688;262;27938;-76
2021/10/25 04:32:57;;;;;;;2.20;2.05;;;2.40;99.90;;;;;;452601;258;27583;-78
2021/10/25 04:34:58;;;;;;;2.80;2.60;;;2.50;99.90;;;;;;452700;262;27619;-78
2021/10/25 04:36:59;;;;;;;2.90;2.70;;;2.50;99.90;;;;;;452685;262;27479;-75
2021/10/25 04:39:02;;;;;;;2.75;2.55;;;2.40;99.90;;;;;;452719;258;27530;-74
2021/10/25 04:41:02;;;;;;;2.72;2.53;;;2.40;99.90;;;;;;452604;262;27515;-75
2021/10/25 04:43:03;;;;;;;2.47;2.33;;;2.40;99.90;;;;;;452659;262;27497;-76
2021/10/25 04:45:04;;;;;;;2.65;2.45;;;2.40;99.90;;;;;;452728;262;27655;-77
2021/10/25 04:47:06;;;;;;;2.85;2.65;;;2.40;99.90;;;;;;452703;262;27503;-76
2021/10/25 04:49:07;;;;;;;2.67;2.47;;;2.50;99.90;;;;;;452715;263;27634;-76
2021/10/25 04:51:09;;;;;;;2.85;2.60;;;2.50;99.90;;;;;;452677;263;27599;-77
2021/10/25 04:53:09;;;;;;;2.90;2.70;;;2.50;99.90;;;;;;452659;262;27534;-76
2021/10/25 04:55:11;;;;;;;2.45;2.25;;;2.60;99.90;;;;;;452635;263;27626;-76
2021/10/25 04:57:12;;;;;;;2.62;2.42;;;2.60;99.90;;;;;;452664;262;27539;-75
2021/10/25 04:59:13;;;;;;;3.10;2.80;;;2.60;99.90;;;;;;452662;263;27534;-76
2021/10/25 05:01:14;;;;;;;2.37;2.20;;;2.70;99.90;;;;;;452688;262;27545;-76
2021/10/25 05:03:16;;;;;;;2.80;2.60;;;2.70;99.90;;;;;;452664;262;27575;-77
2021/10/25 05:05:17;;;;;;;2.97;2.62;;;2.60;99.90;;;;;;452691;263;27525;-76
2021/10/25 05:07:19;;;;;;;2.80;2.60;;;2.60;99.90;;;;;;452694;262;28445;-76
2021/10/25 05:09:19;;;;;;;2.60;2.40;;;2.60;99.90;;;;;;452663;262;27983;-76
2021/10/25 05:11:21;;;;;;;2.70;2.50;;;2.60;99.90;;;;;;452710;262;28098;-77
2021/10/25 05:13:22;;;;;;;4.25;2.95;;;2.70;99.90;;;;;;452685;262;27947;-76
2021/10/25 05:15:23;;;;;;;2.22;2.10;;;2.60;99.90;;;;;;452649;262;27527;-77
2021/10/25 05:17:25;;;;;;;3.10;2.33;;;2.70;99.90;;;;;;452689;262;27557;-75
2021/10/25 05:19:27;;;;;;;2.55;2.28;;;2.70;99.90;;;;;;452690;263;27533;-78
2021/10/25 05:21:28;;;;;;;2.15;2.05;;;2.70;99.90;;;;;;452680;263;27502;-76
2021/10/25 05:23:29;;;;;;;3.40;2.60;;;2.70;99.90;;;;;;452675;263;28035;-76
2021/10/25 05:25:31;;;;;;;2.60;2.40;;;2.70;99.90;;;;;;452639;262;27961;-75
2021/10/25 05:27:32;;;;;;;2.42;2.33;;;2.70;99.90;;;;;;452660;263;27982;-76
2021/10/25 05:29:33;;;;;;;2.70;2.50;;;2.80;99.90;;;;;;452675;258;28001;-77
2021/10/25 05:31:34;;;;;;;2.53;2.40;;;2.70;99.90;;;;;;452660;263;27537;-75
2021/10/25 05:33:36;;;;;;;2.10;2.00;;;2.70;99.90;;;;;;452660;263;27554;-77
2021/10/25 05:35:38;;;;;;;2.67;2.47;;;2.60;99.90;;;;;;452608;263;27583;-76
2021/10/25 05:37:38;;;;;;;2.80;2.60;;;2.60;99.90;;;;;;452591;262;27566;-76
2021/10/25 05:39:39;;;;;;;2.70;2.50;;;2.50;99.90;;;;;;452668;262;27584;-77
2021/10/25 05:41:41;;;;;;;2.53;2.40;;;2.50;99.90;;;;;;452670;262;27491;-75
2021/10/25 05:43:42;;;;;;;2.60;2.50;;;2.40;99.90;;;;;;452651;262;27684;-76
2021/10/25 05:45:43;;;;;;;2.50;2.30;;;2.50;99.90;;;;;;452646;262;27542;-78
2021/10/25 05:47:51;;;;;;;2.92;2.58;;;2.50;99.90;;;;;;452693;258;27519;-76
2021/10/25 05:49:53;;;;;;;3.08;2.78;;;2.50;99.90;;;;;;452373;262;27497;-76
2021/10/25 05:51:54;;;;;;;3.08;2.80;;;2.60;99.90;;;;;;452455;263;28005;-75
2021/10/25 05:53:57;;;;;;;2.55;2.40;;;2.60;99.90;;;;;;452650;262;28025;-75
2021/10/25 05:55:57;;;;;;;2.50;2.40;;;2.70;99.90;;;;;;452533;262;29043;-75
2021/10/25 05:57:58;;;;;;;2.97;2.78;;;2.60;99.90;;;;;;452638;262;27627;-76
2021/10/25 05:59:59;;;;;;;2.90;2.70;;;2.70;99.90;;;;;;452640;262;27562;-75
2021/10/25 06:02:23;;;;;;;2.50;2.30;;;2.70;99.90;;;;;;452661;262;27540;-75
2021/10/25 06:04:17;;;;;;;3.00;2.80;;;2.70;99.90;;;;;;452045;262;27529;-76
2021/10/25 06:06:15;;;;;;;2.85;2.65;;;2.80;99.90;;;;;;452442;262;27536;-76
2021/10/25 06:08:17;;;;;;;3.03;2.80;;;2.80;99.90;;;;;;452626;262;27541;-75
2021/10/25 06:10:18;;;;;;;3.10;2.85;;;2.80;99.90;;;;;;452597;262;27591;-75
2021/10/25 06:12:19;;;;;;;4.32;3.03;;;2.90;99.90;;;;;;452654;262;27490;-75
2021/10/25 06:14:27;;;;;;;2.60;2.40;;;2.90;99.90;;;;;;452519;258;27671;-75
2021/10/25 06:16:32;;;;;;;2.97;2.70;;;3.00;99.90;;;;;;452187;262;27587;-76
2021/10/25 06:18:22;;;;;;;2.50;2.30;;;3.10;99.90;;;;;;452035;262;27611;-76
2021/10/25 06:20:24;;;;;;;2.30;2.12;;;3.20;99.90;;;;;;452647;262;27539;-77
2021/10/25 06:22:28;;;;;;;2.60;2.50;;;3.30;99.90;;;;;;455255;258;27503;-76
2021/10/25 06:24:26;;;;;;;2.45;2.35;;;3.40;99.90;;;;;;463817;254;28039;-77
2021/10/25 06:26:27;;;;;;;2.20;2.10;;;3.40;99.90;;;;;;467235;254;28123;-74
2021/10/25 06:28:29;;;;;;;2.67;2.45;;;3.30;99.90;;;;;;467213;254;28065;-75
2021/10/25 06:30:30;;;;;;;2.22;2.12;;;3.30;99.90;;;;;;467251;254;29160;-77
2021/10/25 06:32:31;;;;;;;2.87;2.67;;;3.30;99.90;;;;;;467263;254;27560;-76
2021/10/25 06:34:38;;;;;;;2.95;2.67;;;3.40;99.90;;;;;;467248;254;27602;-76
2021/10/25 06:36:34;;;;;;;2.50;2.30;;;3.50;99.90;;;;;;466828;254;27643;-76
2021/10/25 06:40:51;;;;;;;2.80;2.60;;;3.60;99.90;;;;;;468459;254;27553;-76
2021/10/25 06:42:53;;;;;;;4.68;2.75;;;3.70;99.90;;;;;;468451;254;27591;-75
2021/10/25 06:45:03;;;;;;;3.33;3.00;;;3.80;99.90;;;;;;468889;253;28300;-75
2021/10/25 06:47:04;;;;;;;3.30;2.72;;;3.90;99.90;;;;;;466447;255;27703;-75
2021/10/25 06:49:05;;;;;;;2.83;2.62;;;4.00;99.90;;;;;;459281;258;27622;-76
2021/10/25 06:51:06;;;;;;;3.25;3.05;;;4.00;99.90;;;;;;459136;259;27928;-78
2021/10/25 06:53:08;;;;;;;3.60;3.30;;;3.70;99.90;;;;;;459146;259;28077;-75
2021/10/25 06:55:09;;;;;;;3.03;2.83;;;3.50;99.90;;;;;;459127;259;27966;-77
2021/10/25 06:57:10;;;;;;;3.25;2.95;;;3.60;99.90;;;;;;459156;259;28072;-77
2021/10/25 06:59:15;;;;;;;3.30;3.10;;;3.80;99.90;;;;;;459169;259;27455;-76
2021/10/25 07:01:16;;;;;;;3.62;3.33;;;4.00;99.90;;;;;;459087;259;27498;-77
2021/10/25 07:03:16;;;;;;;3.05;2.85;;;4.10;99.90;;;;;;459157;259;27494;-76
2021/10/25 07:05:17;;;;;;;3.47;3.17;;;4.10;99.90;;;;;;459182;259;27972;-76
2021/10/25 07:07:21;;;;;;;3.37;3.10;;;4.20;99.90;;;;;;459217;258;27992;-76
2021/10/25 07:09:20;;;;;;;3.65;3.35;;;3.90;99.90;;;;;;459084;259;27985;-74
2021/10/25 07:11:21;;;;;;;3.30;3.10;;;3.70;99.90;;;;;;459063;259;29235;-71
2021/10/25 07:13:24;;;;;;;3.90;3.60;;;3.80;99.90;;;;;;459069;259;27483;-71
2021/10/25 07:15:23;;;;;;;3.50;3.20;;;4.00;99.90;;;;;;458985;259;27499;-71
2021/10/25 07:17:40;;;;;;;5.60;3.28;;;4.10;99.90;;;;;;459094;259;27595;-74
2021/10/25 07:22:11;;;;;;;3.40;3.20;;;4.30;99.90;;;;;;459090;259;27560;-71
2021/10/25 07:59:30;;;;;;;3.35;3.15;;;4.30;99.90;;;;;;459106;259;27507;-71
2021/10/25 08:11:11;;;;;;;7.82;3.00;;;5.80;99.90;;;;;;461082;257;27588;-70
2021/10/25 08:13:14;;;;;;;3.83;3.45;;;6.10;99.90;;;;;;469260;253;27578;-73
2021/10/25 08:15:21;;;;;;;5.80;3.40;;;6.40;99.90;;;;;;461029;258;28075;-71
2021/10/25 08:17:19;;;;;;;3.55;3.25;;;6.40;99.90;;;;;;468625;253;28063;-73
2021/10/25 08:19:29;;;;;;;3.25;2.95;;;6.40;99.90;;;;;;460810;258;27603;-71
2021/10/25 08:21:29;;;;;;;3.08;2.85;;;6.30;99.90;;;;;;469140;253;27598;-70
2021/10/25 08:23:30;;;;;;;3.60;3.30;;;6.30;99.90;;;;;;461183;257;28169;-70
2021/10/25 08:25:31;;;;;;;3.20;2.90;;;6.10;99.90;;;;;;469297;253;27899;-70
2021/10/25 08:27:32;;;;;;;3.30;3.00;;;6.00;99.90;;;;;;461133;257;28081;-73
2021/10/25 08:29:34;;;;;;;3.20;2.90;;;5.90;99.90;;;;;;469248;249;27459;-72
2021/10/25 08:31:37;;;;;;;3.50;2.95;;;5.90;99.90;;;;;;461177;257;27603;-72
2021/10/25 08:33:47;;;;;;;2.90;2.70;;;5.80;99.90;;;;;;469132;253;27466;-72
2021/10/25 08:35:53;;;;;;;5.35;3.17;;;5.80;99.90;;;;;;460568;258;27947;-72
2021/10/25 08:40:07;;;;;;;3.15;2.87;;;5.90;99.90;;;;;;461140;258;27543;-71
2021/10/25 08:42:08;;;;;;;2.50;2.40;;;6.00;99.90;;;;;;469284;253;27439;-70
2021/10/25 08:44:09;;;;;;;3.30;3.00;;;6.10;99.90;;;;;;461165;257;27554;-69
2021/10/25 08:46:10;;;;;;;2.90;2.70;;;6.00;99.90;;;;;;469129;253;27561;-74
2021/10/25 08:48:12;;;;;;;2.85;2.65;;;5.90;99.90;;;;;;461173;257;27574;-72
2021/10/25 08:50:13;;;;;;;4.25;3.08;;;5.90;99.90;;;;;;469002;253;28027;-70
2021/10/25 08:52:16;;;;;;;2.92;2.72;;;5.90;99.90;;;;;;461184;257;28052;-71
2021/10/25 08:54:15;;;;;;;2.83;2.62;;;6.00;99.90;;;;;;469186;253;28055;-70
2021/10/25 08:56:20;;;;;;;2.90;2.70;;;6.00;99.90;;;;;;461172;257;27709;-73
2021/10/25 08:58:21;;;;;;;3.30;3.00;;;6.10;99.90;;;;;;469244;253;27570;-71
2021/10/25 09:00:22;;;;;;;6.47;2.55;;;6.20;99.90;;;;;;461072;257;27556;-72
2021/10/25 09:02:24;;;;;;;2.75;2.55;;;6.30;99.90;;;;;;469275;253;27915;-71
2021/10/25 09:04:25;;;;;;;2.65;2.45;;;6.30;99.90;;;;;;460781;258;28022;-73
2021/10/25 09:06:26;;;;;;;2.85;2.65;;;6.30;99.90;;;;;;469238;253;27539;-71
2021/10/25 09:08:27;;;;;;;3.12;2.83;;;6.40;99.90;;;;;;461187;257;27599;-74
2021/10/25 09:10:28;;;;;;;3.53;3.08;;;6.50;99.90;;;;;;469274;253;27443;-72
2021/10/25 09:12:30;;;;;;;4.40;3.35;;;6.70;99.90;;;;;;461191;257;27595;-71
2021/10/25 09:14:31;;;;;;;3.00;2.80;;;7.00;99.90;;;;;;469317;249;27608;-74
2021/10/25 09:16:32;;;;;;;4.60;3.08;;;7.20;99.90;;;;;;461157;257;27459;-72
2021/10/25 09:18:33;;;;;;;3.60;3.15;;;7.50;99.90;;;;;;469238;253;27481;-72
2021/10/25 09:20:35;;;;;;;3.67;3.37;;;7.70;99.90;;;;;;461172;257;27842;-72
2021/10/25 09:22:36;;;;;;;2.95;2.75;;;7.70;99.90;;;;;;469275;253;28208;-72
2021/10/25 09:24:37;;;;;;;2.97;2.67;;;7.80;99.90;;;;;;461186;257;27986;-73
2021/10/25 09:26:38;;;;;;;3.50;3.20;;;7.80;99.90;;;;;;469266;253;27921;-73
2021/10/25 09:28:41;;;;;;;3.80;2.95;;;7.90;99.90;;;;;;461155;257;27511;-73
2021/10/25 09:30:41;;;;;;;5.23;2.40;;;8.00;99.90;;;;;;468964;253;27583;-75
2021/10/25 09:32:42;;;;;;;3.83;2.67;;;8.10;99.90;;;;;;460992;253;28994;-72
2021/10/25 09:34:50;;;;;;;3.33;3.03;;;8.10;99.90;;;;;;453112;262;27664;-72
2021/10/25 09:36:51;;;;;;;3.27;2.97;;;8.10;99.90;;;;;;452727;262;27662;-73
2021/10/25 09:38:57;;;;;;;2.90;2.70;;;8.20;99.90;;;;;;452867;262;28559;-72
2021/10/25 09:41:48;;;;;;;3.80;2.90;;;8.20;99.90;;;;;;452442;262;28234;-73
2021/10/25 09:43:14;;;;;;;3.10;2.80;;;8.30;99.90;;;;;;449812;262;29060;-74
2021/10/25 09:45:26;;;;;;;3.40;3.13;;;8.40;99.90;;;;;;452366;262;28237;-72
2021/10/25 09:49:28;;;;;;;3.37;3.07;;;8.80;99.90;;;;;;452914;262;28699;-72
2021/10/25 09:51:30;;;;;;;3.03;2.80;;;9.00;99.90;;;;;;453120;262;28758;-73
2021/10/25 09:53:31;;;;;;;2.80;2.60;;;9.00;99.90;;;;;;452765;262;27963;-72
2021/10/25 09:55:32;;;;;;;3.50;3.10;;;9.10;99.90;;;;;;453060;262;28184;-73
2021/10/25 09:57:43;;;;;;;2.83;2.63;;;9.10;99.90;;;;;;453126;262;28144;-73
2021/10/25 10:01:45;;;;;;;2.63;2.43;;;9.10;99.90;;;;;;452990;262;28087;-74
2021/10/25 10:03:46;;;;;;;2.87;2.57;;;9.20;99.90;;;;;;452957;262;28036;-73
2021/10/25 10:05:50;;;;;;;2.97;2.77;;;9.30;99.90;;;;;;452999;262;29359;-72
2021/10/25 10:07:49;;;;;;;2.30;2.20;;;9.50;99.90;;;;;;452953;262;28580;-73
2021/10/25 10:09:50;;;;;;;2.50;2.30;;;9.60;99.90;;;;;;461028;258;28571;-73
2021/10/25 10:11:52;;;;;;;2.97;2.17;;;9.60;99.90;;;;;;460962;258;28512;-73
2021/10/25 10:13:52;;;;;;;3.40;2.30;;;9.60;99.90;;;;;;460996;257;28554;-73
2021/10/25 10:15:55;;;;;;;2.30;2.20;;;9.70;99.90;;;;;;461003;254;29733;-74
2021/10/25 10:18:00;;;;;;;2.17;2.00;;;9.80;99.90;;;;;;460965;253;28000;-73
2021/10/25 10:19:56;;;;;;;2.50;2.30;;;9.90;99.90;;;;;;460645;258;27976;-73
2021/10/25 10:21:57;;;;;;;2.47;2.27;;;10.00;99.90;;;;;;460970;258;27856;-73
2021/10/25 10:24:04;;;;;;;2.33;2.10;;;10.20;99.90;;;;;;461022;258;27851;-72
2021/10/25 10:26:00;;;;;;;2.43;2.23;;;10.20;99.90;;;;;;460654;258;28127;-74
2021/10/25 10:28:01;;;;;;;3.23;2.70;;;10.30;99.90;;;;;;461064;253;28133;-72
2021/10/25 10:30:02;;;;;;;3.93;2.37;;;10.30;99.90;;;;;;461024;258;28117;-73
2021/10/25 10:32:04;;;;;;;2.60;2.40;;;10.30;99.90;;;;;;460960;254;28159;-73
2021/10/25 10:34:05;;;;;;;2.40;2.20;;;10.40;99.90;;;;;;460993;258;28132;-72
2021/10/25 10:36:06;;;;;;;2.03;1.83;;;10.50;99.90;;;;;;461030;258;28609;-73
2021/10/25 10:38:07;;;;;;;3.20;2.10;;;10.60;99.90;;;;;;461019;258;28677;-72
2021/10/25 10:40:10;;;;;;;2.00;1.90;;;10.70;99.90;;;;;;461004;258;28473;-73
2021/10/25 10:42:10;;;;;;;2.03;1.87;;;10.70;99.90;;;;;;460861;258;28147;-72
2021/10/25 10:44:11;;;;;;;3.67;2.17;;;10.70;99.90;;;;;;460996;258;28115;-72
2021/10/25 10:46:15;;;;;;;2.13;2.03;;;10.90;99.90;;;;;;460962;254;27983;-73
2021/10/25 10:48:14;;;;;;;2.47;2.13;;;10.90;99.90;;;;;;460842;258;27687;-72
2021/10/25 10:50:15;;;;;;;2.40;2.20;;;11.00;99.90;;;;;;461044;258;27995;-73
2021/10/25 10:52:23;;;;;;;3.40;1.80;;;11.10;99.90;;;;;;461024;258;28233;-73
2021/10/25 10:54:23;;;;;;;2.17;2.07;;;11.10;99.90;;;;;;460707;258;29345;-72
2021/10/25 10:56:38;;;;;;;2.50;2.30;;;11.10;99.90;;;;;;460821;253;28586;-73
2021/10/25 10:58:39;;;;;;;2.97;2.43;;;11.10;99.90;;;;;;459745;258;28179;-73
2021/10/25 11:00:26;;;;;;;2.10;1.87;;;11.20;99.90;;;;;;460033;258;28786;-74
2021/10/25 11:02:28;;;;;;;2.40;2.20;;;11.20;99.90;;;;;;461077;258;27859;-73
2021/10/25 11:04:29;;;;;;;2.70;2.50;;;11.30;99.90;;;;;;461070;258;28099;-73
2021/10/25 11:06:30;;;;;;;2.13;2.03;;;11.50;99.90;;;;;;460006;258;28044;-72
2021/10/25 11:08:32;;;;;;;2.17;2.00;;;11.40;99.90;;;;;;458706;253;27961;-73
2021/10/25 11:10:33;;;;;;;2.43;2.23;;;11.40;99.90;;;;;;453468;262;28140;-74
2021/10/25 11:12:40;;;;;;;2.23;2.00;;;11.50;99.90;;;;;;453452;262;27823;-72
2021/10/25 11:14:37;;;;;;;2.63;2.43;;;11.50;99.90;;;;;;453368;262;27821;-73
2021/10/25 11:18:38;;;;;;;3.23;2.67;;;11.60;99.90;;;;;;453495;262;28064;-73
2021/10/25 11:20:39;;;;;;;4.40;2.40;;;11.80;99.90;;;;;;451436;262;28379;-74
2021/10/25 11:22:41;;;;;;;2.80;2.30;;;11.80;99.90;;;;;;451350;263;28483;-72
2021/10/25 11:24:41;;;;;;;2.50;2.10;;;11.70;99.90;;;;;;451286;263;28314;-73
2021/10/25 11:26:43;;;;;;;2.80;2.33;;;11.80;99.90;;;;;;451287;263;27980;-72
2021/10/25 11:28:44;;;;;;;2.47;2.27;;;11.70;99.90;;;;;;451318;263;27610;-73
2021/10/25 11:30:46;;;;;;;3.20;2.70;;;11.90;99.90;;;;;;451297;263;28183;-73
2021/10/25 11:32:47;;;;;;;3.07;2.30;;;11.80;99.90;;;;;;445409;262;28013;-72
2021/10/25 11:34:54;;;;;;;4.50;2.67;;;11.90;99.90;;;;;;445405;267;28205;-74
2021/10/25 11:36:49;;;;;;;2.40;2.20;;;12.00;99.90;;;;;;445428;262;28515;-72
2021/10/25 11:38:50;;;;;;;4.43;3.20;;;12.00;99.90;;;;;;445436;267;27982;-73
2021/10/25 11:40:51;;;;;;;3.00;2.80;;;11.90;99.90;;;;;;445444;267;28053;-73
2021/10/25 11:42:53;;;;;;;3.20;3.00;;;12.00;99.90;;;;;;445420;267;28215;-72
2021/10/25 11:44:54;;;;;;;3.50;3.20;;;12.10;99.90;;;;;;445444;267;28627;-72
2021/10/25 11:46:56;;;;;;;3.83;3.30;;;12.20;99.90;;;;;;445439;267;28794;-74
2021/10/25 11:48:57;;;;;;;5.07;2.70;;;12.20;99.90;;;;;;445443;267;28655;-73
2021/10/25 11:50:58;;;;;;;3.53;3.13;;;12.30;99.90;;;;;;445415;267;28670;-73
2021/10/25 11:52:59;;;;;;;2.93;2.73;;;12.30;99.90;;;;;;445389;267;27970;-73
2021/10/25 11:55:00;;;;;;;4.93;2.57;;;12.30;99.90;;;;;;445430;267;28072;-73
2021/10/25 11:57:02;;;;;;;3.10;2.60;;;12.40;99.90;;;;;;445431;267;28184;-74
2021/10/25 11:59:03;;;;;;;3.10;2.83;;;12.50;99.90;;;;;;445421;267;28231;-72
2021/10/25 12:01:04;;;;;;;3.40;3.10;;;12.60;99.90;;;;;;445378;267;28070;-73
2021/10/25 12:03:05;;;;;;;5.30;3.07;;;12.60;99.90;;;;;;445366;267;28123;-73